sensor_id;sensor_type;location;lat;lon;timestamp;P1;durP1;ratioP1;P2;durP2;ratioP2
69678;SDS011;56915;52.046;4.854;2023-04-24T00:01:33;1.30;;;0.60;;
69678;SDS011;56915;52.046;4.854;2023-04-24T00:04:00;1.02;;;0.43;;
69678;SDS011;56915;52.046;4.854;2023-04-24T00:06:28;1.33;;;0.40;;
69678;SDS011;56915;52.046;4.854;2023-04-24T00:08:59;2.07;;;0.40;;
69678;SDS011;56915;52.046;4.854;2023-04-24T00:11:27;0.70;;;0.47;;
69678;SDS011;56915;52.046;4.854;2023-04-24T00:13:54;3.17;;;0.98;;
69678;SDS011;56915;52.046;4.854;2023-04-24T00:16:20;1.70;;;0.98;;
69678;SDS011;56915;52.046;4.854;2023-04-24T00:18:48;3.85;;;1.40;;
69678;SDS011;56915;52.046;4.854;2023-04-24T00:21:15;3.70;;;1.40;;
69678;SDS011;56915;52.046;4.854;2023-04-24T00:23:45;2.42;;;1.23;;
69678;SDS011;56915;52.046;4.854;2023-04-24T00:26:12;2.83;;;1.33;;
69678;SDS011;56915;52.046;4.854;2023-04-24T00:28:38;3.78;;;1.70;;
69678;SDS011;56915;52.046;4.854;2023-04-24T00:31:05;2.85;;;1.50;;
69678;SDS011;56915;52.046;4.854;2023-04-24T00:33:32;1.87;;;1.10;;
69678;SDS011;56915;52.046;4.854;2023-04-24T00:35:59;3.10;;;1.38;;
69678;SDS011;56915;52.046;4.854;2023-04-24T00:38:26;2.63;;;1.25;;
69678;SDS011;56915;52.046;4.854;2023-04-24T00:40:52;4.47;;;1.48;;
69678;SDS011;56915;52.046;4.854;2023-04-24T00:43:20;4.38;;;1.95;;
69678;SDS011;56915;52.046;4.854;2023-04-24T00:45:47;4.27;;;2.10;;
69678;SDS011;56915;52.046;4.854;2023-04-24T00:48:14;8.15;;;2.88;;
69678;SDS011;56915;52.046;4.854;2023-04-24T00:50:41;7.03;;;3.78;;
69678;SDS011;56915;52.046;4.854;2023-04-24T00:53:08;9.05;;;4.38;;
69678;SDS011;56915;52.046;4.854;2023-04-24T00:55:40;11.27;;;4.88;;
69678;SDS011;56915;52.046;4.854;2023-04-24T00:58:07;6.70;;;4.10;;
69678;SDS011;56915;52.046;4.854;2023-04-24T01:00:34;8.27;;;3.83;;
69678;SDS011;56915;52.046;4.854;2023-04-24T01:03:01;7.45;;;3.33;;
69678;SDS011;56915;52.046;4.854;2023-04-24T01:05:32;7.57;;;3.55;;
69678;SDS011;56915;52.046;4.854;2023-04-24T01:08:00;5.32;;;2.88;;
69678;SDS011;56915;52.046;4.854;2023-04-24T01:10:29;4.03;;;1.90;;
69678;SDS011;56915;52.046;4.854;2023-04-24T01:12:57;1.63;;;1.10;;
69678;SDS011;56915;52.046;4.854;2023-04-24T01:15:24;2.10;;;1.10;;
69678;SDS011;56915;52.046;4.854;2023-04-24T01:17:51;2.25;;;1.48;;
69678;SDS011;56915;52.046;4.854;2023-04-24T01:20:18;4.85;;;2.72;;
69678;SDS011;56915;52.046;4.854;2023-04-24T01:22:47;2.83;;;1.70;;
69678;SDS011;56915;52.046;4.854;2023-04-24T01:25:14;4.18;;;2.00;;
69678;SDS011;56915;52.046;4.854;2023-04-24T01:27:41;3.63;;;2.30;;
69678;SDS011;56915;52.046;4.854;2023-04-24T01:30:08;3.65;;;2.20;;
69678;SDS011;56915;52.046;4.854;2023-04-24T01:32:35;4.68;;;2.33;;
69678;SDS011;56915;52.046;4.854;2023-04-24T01:35:04;6.03;;;2.97;;
69678;SDS011;56915;52.046;4.854;2023-04-24T01:37:31;5.05;;;2.53;;
69678;SDS011;56915;52.046;4.854;2023-04-24T01:39:59;6.35;;;3.10;;
69678;SDS011;56915;52.046;4.854;2023-04-24T01:42:26;6.80;;;3.20;;
69678;SDS011;56915;52.046;4.854;2023-04-24T01:44:53;5.80;;;2.88;;
69678;SDS011;56915;52.046;4.854;2023-04-24T01:47:20;6.00;;;3.07;;
69678;SDS011;56915;52.046;4.854;2023-04-24T01:49:47;7.80;;;3.28;;
69678;SDS011;56915;52.046;4.854;2023-04-24T01:52:16;3.90;;;1.48;;
69678;SDS011;56915;52.046;4.854;2023-04-24T01:54:44;5.00;;;2.25;;
69678;SDS011;56915;52.046;4.854;2023-04-24T01:57:10;3.78;;;1.40;;
69678;SDS011;56915;52.046;4.854;2023-04-24T01:59:37;2.73;;;1.37;;
69678;SDS011;56915;52.046;4.854;2023-04-24T02:02:04;5.22;;;1.55;;
69678;SDS011;56915;52.046;4.854;2023-04-24T02:04:31;2.92;;;1.23;;
69678;SDS011;56915;52.046;4.854;2023-04-24T02:06:58;3.20;;;1.35;;
69678;SDS011;56915;52.046;4.854;2023-04-24T02:09:24;1.98;;;1.13;;
69678;SDS011;56915;52.046;4.854;2023-04-24T02:11:51;1.87;;;1.13;;
69678;SDS011;56915;52.046;4.854;2023-04-24T02:14:18;2.22;;;1.20;;
69678;SDS011;56915;52.046;4.854;2023-04-24T02:16:45;5.80;;;1.58;;
69678;SDS011;56915;52.046;4.854;2023-04-24T02:19:12;3.05;;;1.20;;
69678;SDS011;56915;52.046;4.854;2023-04-24T02:21:39;2.85;;;1.25;;
69678;SDS011;56915;52.046;4.854;2023-04-24T02:24:06;6.00;;;1.40;;
69678;SDS011;56915;52.046;4.854;2023-04-24T02:26:32;4.50;;;1.80;;
69678;SDS011;56915;52.046;4.854;2023-04-24T02:28:59;3.22;;;1.50;;
69678;SDS011;56915;52.046;4.854;2023-04-24T02:31:26;4.68;;;2.20;;
69678;SDS011;56915;52.046;4.854;2023-04-24T02:33:53;4.32;;;1.67;;
69678;SDS011;56915;52.046;4.854;2023-04-24T02:36:20;3.73;;;1.70;;
69678;SDS011;56915;52.046;4.854;2023-04-24T02:38:49;3.30;;;1.90;;
69678;SDS011;56915;52.046;4.854;2023-04-24T02:41:16;5.07;;;2.17;;
69678;SDS011;56915;52.046;4.854;2023-04-24T02:43:42;7.68;;;2.72;;
69678;SDS011;56915;52.046;4.854;2023-04-24T02:46:09;4.93;;;2.90;;
69678;SDS011;56915;52.046;4.854;2023-04-24T02:48:36;7.53;;;3.43;;
69678;SDS011;56915;52.046;4.854;2023-04-24T02:51:03;8.00;;;3.28;;
69678;SDS011;56915;52.046;4.854;2023-04-24T02:53:30;7.20;;;3.25;;
69678;SDS011;56915;52.046;4.854;2023-04-24T02:55:59;7.38;;;3.03;;
69678;SDS011;56915;52.046;4.854;2023-04-24T02:58:29;7.20;;;3.22;;
69678;SDS011;56915;52.046;4.854;2023-04-24T03:00:56;7.93;;;3.37;;
69678;SDS011;56915;52.046;4.854;2023-04-24T03:03:23;7.40;;;3.50;;
69678;SDS011;56915;52.046;4.854;2023-04-24T03:05:51;6.93;;;3.28;;
69678;SDS011;56915;52.046;4.854;2023-04-24T03:08:29;7.97;;;3.40;;
69678;SDS011;56915;52.046;4.854;2023-04-24T03:10:55;9.60;;;3.80;;
69678;SDS011;56915;52.046;4.854;2023-04-24T03:13:22;10.37;;;4.10;;
69678;SDS011;56915;52.046;4.854;2023-04-24T03:15:49;10.48;;;4.25;;
69678;SDS011;56915;52.046;4.854;2023-04-24T03:18:16;9.68;;;3.95;;
69678;SDS011;56915;52.046;4.854;2023-04-24T03:20:45;9.65;;;3.78;;
69678;SDS011;56915;52.046;4.854;2023-04-24T03:23:12;8.20;;;3.33;;
69678;SDS011;56915;52.046;4.854;2023-04-24T03:25:39;5.77;;;2.70;;
69678;SDS011;56915;52.046;4.854;2023-04-24T03:28:08;5.38;;;2.60;;
69678;SDS011;56915;52.046;4.854;2023-04-24T03:30:35;3.67;;;1.90;;
69678;SDS011;56915;52.046;4.854;2023-04-24T03:33:02;3.38;;;0.93;;
69678;SDS011;56915;52.046;4.854;2023-04-24T03:35:29;1.65;;;0.95;;
69678;SDS011;56915;52.046;4.854;2023-04-24T03:37:56;2.57;;;0.80;;
69678;SDS011;56915;52.046;4.854;2023-04-24T03:40:23;1.08;;;0.50;;
69678;SDS011;56915;52.046;4.854;2023-04-24T03:42:50;4.43;;;0.88;;
69678;SDS011;56915;52.046;4.854;2023-04-24T03:45:16;2.58;;;0.50;;
69678;SDS011;56915;52.046;4.854;2023-04-24T03:47:43;2.60;;;0.50;;
69678;SDS011;56915;52.046;4.854;2023-04-24T03:50:10;2.70;;;0.40;;
69678;SDS011;56915;52.046;4.854;2023-04-24T03:52:38;1.85;;;0.30;;
69678;SDS011;56915;52.046;4.854;2023-04-24T03:55:05;0.70;;;0.30;;
69678;SDS011;56915;52.046;4.854;2023-04-24T03:57:32;2.05;;;0.40;;
69678;SDS011;56915;52.046;4.854;2023-04-24T03:59:59;1.02;;;0.30;;
69678;SDS011;56915;52.046;4.854;2023-04-24T04:02:26;0.77;;;0.23;;
69678;SDS011;56915;52.046;4.854;2023-04-24T04:04:53;0.50;;;0.20;;
69678;SDS011;56915;52.046;4.854;2023-04-24T04:07:20;0.85;;;0.30;;
69678;SDS011;56915;52.046;4.854;2023-04-24T04:09:47;1.63;;;0.32;;
69678;SDS011;56915;52.046;4.854;2023-04-24T04:12:14;0.90;;;0.30;;
69678;SDS011;56915;52.046;4.854;2023-04-24T04:14:40;1.67;;;0.40;;
69678;SDS011;56915;52.046;4.854;2023-04-24T04:17:07;2.22;;;0.25;;
69678;SDS011;56915;52.046;4.854;2023-04-24T04:19:34;2.70;;;0.68;;
69678;SDS011;56915;52.046;4.854;2023-04-24T04:22:01;1.25;;;0.57;;
69678;SDS011;56915;52.046;4.854;2023-04-24T04:24:27;1.55;;;0.50;;
69678;SDS011;56915;52.046;4.854;2023-04-24T04:26:54;2.53;;;0.50;;
69678;SDS011;56915;52.046;4.854;2023-04-24T04:29:24;1.98;;;0.40;;
69678;SDS011;56915;52.046;4.854;2023-04-24T04:31:52;2.00;;;0.50;;
69678;SDS011;56915;52.046;4.854;2023-04-24T04:34:19;0.77;;;0.40;;
69678;SDS011;56915;52.046;4.854;2023-04-24T04:36:45;0.77;;;0.40;;
69678;SDS011;56915;52.046;4.854;2023-04-24T04:39:12;1.30;;;0.30;;
69678;SDS011;56915;52.046;4.854;2023-04-24T04:41:41;2.13;;;0.40;;
69678;SDS011;56915;52.046;4.854;2023-04-24T04:44:08;1.67;;;0.30;;
69678;SDS011;56915;52.046;4.854;2023-04-24T04:46:36;1.67;;;0.30;;
69678;SDS011;56915;52.046;4.854;2023-04-24T04:49:03;1.35;;;0.40;;
69678;SDS011;56915;52.046;4.854;2023-04-24T04:51:30;2.83;;;0.43;;
69678;SDS011;56915;52.046;4.854;2023-04-24T04:53:58;1.05;;;0.40;;
69678;SDS011;56915;52.046;4.854;2023-04-24T04:56:24;2.13;;;0.40;;
69678;SDS011;56915;52.046;4.854;2023-04-24T04:58:51;3.45;;;0.50;;
69678;SDS011;56915;52.046;4.854;2023-04-24T05:01:18;2.00;;;0.50;;
69678;SDS011;56915;52.046;4.854;2023-04-24T05:03:45;2.03;;;0.30;;
69678;SDS011;56915;52.046;4.854;2023-04-24T05:06:12;1.73;;;0.30;;
69678;SDS011;56915;52.046;4.854;2023-04-24T05:08:39;0.52;;;0.30;;
69678;SDS011;56915;52.046;4.854;2023-04-24T05:11:06;2.25;;;0.40;;
69678;SDS011;56915;52.046;4.854;2023-04-24T05:13:33;1.00;;;0.32;;
69678;SDS011;56915;52.046;4.854;2023-04-24T05:16:06;1.13;;;0.30;;
69678;SDS011;56915;52.046;4.854;2023-04-24T05:18:33;1.10;;;0.30;;
69678;SDS011;56915;52.046;4.854;2023-04-24T05:21:00;0.80;;;0.20;;
69678;SDS011;56915;52.046;4.854;2023-04-24T05:23:27;0.73;;;0.30;;
69678;SDS011;56915;52.046;4.854;2023-04-24T05:27:17;0.60;;;0.30;;
69678;SDS011;56915;52.046;4.854;2023-04-24T05:30:05;1.20;;;0.43;;
69678;SDS011;56915;52.046;4.854;2023-04-24T05:32:56;1.38;;;0.60;;
69678;SDS011;56915;52.046;4.854;2023-04-24T05:35:54;4.03;;;1.40;;
69678;SDS011;56915;52.046;4.854;2023-04-24T05:45:09;6.13;;;2.90;;
69678;SDS011;56915;52.046;4.854;2023-04-24T05:51:00;7.95;;;4.15;;
69678;SDS011;56915;52.046;4.854;2023-04-24T05:53:29;8.50;;;4.25;;
69678;SDS011;56915;52.046;4.854;2023-04-24T05:55:57;12.68;;;5.47;;
69678;SDS011;56915;52.046;4.854;2023-04-24T05:58:25;11.68;;;5.68;;
69678;SDS011;56915;52.046;4.854;2023-04-24T06:00:54;13.97;;;6.20;;
69678;SDS011;56915;52.046;4.854;2023-04-24T06:03:21;14.05;;;6.40;;
69678;SDS011;56915;52.046;4.854;2023-04-24T06:05:49;12.82;;;5.80;;
69678;SDS011;56915;52.046;4.854;2023-04-24T06:08:17;9.18;;;4.60;;
69678;SDS011;56915;52.046;4.854;2023-04-24T06:10:44;11.02;;;5.07;;
69678;SDS011;56915;52.046;4.854;2023-04-24T06:13:11;10.03;;;4.80;;
69678;SDS011;56915;52.046;4.854;2023-04-24T06:15:38;18.13;;;5.68;;
69678;SDS011;56915;52.046;4.854;2023-04-24T06:18:05;10.75;;;4.90;;
69678;SDS011;56915;52.046;4.854;2023-04-24T06:20:32;8.23;;;4.15;;
69678;SDS011;56915;52.046;4.854;2023-04-24T06:22:59;11.48;;;5.55;;
69678;SDS011;56915;52.046;4.854;2023-04-24T06:25:25;11.90;;;4.43;;
69678;SDS011;56915;52.046;4.854;2023-04-24T06:27:53;12.02;;;3.78;;
69678;SDS011;56915;52.046;4.854;2023-04-24T06:30:23;14.70;;;5.43;;
69678;SDS011;56915;52.046;4.854;2023-04-24T06:32:52;11.15;;;4.15;;
69678;SDS011;56915;52.046;4.854;2023-04-24T06:35:35;11.60;;;5.15;;
69678;SDS011;56915;52.046;4.854;2023-04-24T06:38:08;15.83;;;4.33;;
69678;SDS011;56915;52.046;4.854;2023-04-24T06:40:34;20.63;;;5.57;;
69678;SDS011;56915;52.046;4.854;2023-04-24T06:43:01;10.07;;;3.53;;
69678;SDS011;56915;52.046;4.854;2023-04-24T06:45:38;14.00;;;5.55;;
69678;SDS011;56915;52.046;4.854;2023-04-24T06:48:06;8.35;;;4.28;;
69678;SDS011;56915;52.046;4.854;2023-04-24T06:51:13;7.83;;;3.73;;
69678;SDS011;56915;52.046;4.854;2023-04-24T06:53:42;12.57;;;3.70;;
69678;SDS011;56915;52.046;4.854;2023-04-24T06:56:32;9.23;;;3.03;;
69678;SDS011;56915;52.046;4.854;2023-04-24T06:59:02;11.75;;;2.75;;
69678;SDS011;56915;52.046;4.854;2023-04-24T07:02:30;12.95;;;3.55;;
69678;SDS011;56915;52.046;4.854;2023-04-24T07:04:57;13.87;;;4.87;;
69678;SDS011;56915;52.046;4.854;2023-04-24T07:07:32;15.98;;;3.92;;
69678;SDS011;56915;52.046;4.854;2023-04-24T07:10:12;8.27;;;3.05;;
69678;SDS011;56915;52.046;4.854;2023-04-24T07:12:57;11.32;;;3.50;;
69678;SDS011;56915;52.046;4.854;2023-04-24T07:15:36;12.48;;;3.33;;
69678;SDS011;56915;52.046;4.854;2023-04-24T07:18:05;11.90;;;3.67;;
69678;SDS011;56915;52.046;4.854;2023-04-24T07:25:18;9.18;;;2.17;;
69678;SDS011;56915;52.046;4.854;2023-04-24T07:31:10;10.68;;;2.25;;
69678;SDS011;56915;52.046;4.854;2023-04-24T08:02:35;8.80;;;2.08;;
69678;SDS011;56915;52.046;4.854;2023-04-24T08:05:36;3.35;;;1.10;;
69678;SDS011;56915;52.046;4.854;2023-04-24T08:15:48;10.35;;;1.67;;
69678;SDS011;56915;52.046;4.854;2023-04-24T08:18:31;9.90;;;1.50;;
69678;SDS011;56915;52.046;4.854;2023-04-24T08:24:23;10.20;;;1.43;;
69678;SDS011;56915;52.046;4.854;2023-04-24T08:27:09;6.25;;;1.20;;
69678;SDS011;56915;52.046;4.854;2023-04-24T08:29:57;6.10;;;1.70;;
69678;SDS011;56915;52.046;4.854;2023-04-24T08:32:44;8.10;;;1.52;;
69678;SDS011;56915;52.046;4.854;2023-04-24T08:35:20;9.13;;;1.75;;
69678;SDS011;56915;52.046;4.854;2023-04-24T08:37:53;5.17;;;1.47;;
69678;SDS011;56915;52.046;4.854;2023-04-24T08:40:26;3.95;;;0.95;;
69678;SDS011;56915;52.046;4.854;2023-04-24T08:42:59;5.85;;;1.60;;
69678;SDS011;56915;52.046;4.854;2023-04-24T08:45:30;7.70;;;1.70;;
69678;SDS011;56915;52.046;4.854;2023-04-24T08:47:59;5.53;;;1.42;;
69678;SDS011;56915;52.046;4.854;2023-04-24T08:50:26;4.73;;;1.50;;
69678;SDS011;56915;52.046;4.854;2023-04-24T08:52:53;2.63;;;0.82;;
69678;SDS011;56915;52.046;4.854;2023-04-24T08:55:20;3.20;;;1.20;;
69678;SDS011;56915;52.046;4.854;2023-04-24T08:57:50;5.65;;;1.48;;
69678;SDS011;56915;52.046;4.854;2023-04-24T09:00:19;4.22;;;1.20;;
69678;SDS011;56915;52.046;4.854;2023-04-24T09:02:48;2.17;;;0.87;;
69678;SDS011;56915;52.046;4.854;2023-04-24T09:05:16;4.50;;;1.27;;
69678;SDS011;56915;52.046;4.854;2023-04-24T09:07:45;4.20;;;1.35;;
69678;SDS011;56915;52.046;4.854;2023-04-24T09:10:16;3.75;;;0.93;;
69678;SDS011;56915;52.046;4.854;2023-04-24T09:12:42;5.40;;;1.10;;
69678;SDS011;56915;52.046;4.854;2023-04-24T09:15:11;4.33;;;1.07;;
69678;SDS011;56915;52.046;4.854;2023-04-24T09:17:38;6.18;;;1.33;;
69678;SDS011;56915;52.046;4.854;2023-04-24T09:20:05;5.30;;;0.98;;
69678;SDS011;56915;52.046;4.854;2023-04-24T09:22:33;1.40;;;0.68;;
69678;SDS011;56915;52.046;4.854;2023-04-24T09:25:04;4.63;;;0.80;;
69678;SDS011;56915;52.046;4.854;2023-04-24T09:27:33;2.20;;;0.80;;
69678;SDS011;56915;52.046;4.854;2023-04-24T09:30:01;3.08;;;0.75;;
69678;SDS011;56915;52.046;4.854;2023-04-24T09:32:28;1.35;;;0.50;;
69678;SDS011;56915;52.046;4.854;2023-04-24T09:37:41;2.05;;;0.70;;
69678;SDS011;56915;52.046;4.854;2023-04-24T09:40:19;2.10;;;0.80;;
69678;SDS011;56915;52.046;4.854;2023-04-24T09:42:52;3.42;;;0.55;;
69678;SDS011;56915;52.046;4.854;2023-04-24T09:45:20;2.20;;;0.70;;
69678;SDS011;56915;52.046;4.854;2023-04-24T09:47:51;2.53;;;0.52;;
69678;SDS011;56915;52.046;4.854;2023-04-24T09:50:21;3.72;;;0.75;;
69678;SDS011;56915;52.046;4.854;2023-04-24T09:52:58;1.30;;;0.50;;
69678;SDS011;56915;52.046;4.854;2023-04-24T09:55:28;1.65;;;0.40;;
69678;SDS011;56915;52.046;4.854;2023-04-24T09:57:56;1.42;;;0.30;;
69678;SDS011;56915;52.046;4.854;2023-04-24T10:00:25;2.92;;;0.45;;
69678;SDS011;56915;52.046;4.854;2023-04-24T10:03:00;0.75;;;0.32;;
69678;SDS011;56915;52.046;4.854;2023-04-24T10:05:29;0.80;;;0.40;;
69678;SDS011;56915;52.046;4.854;2023-04-24T10:10:30;2.15;;;0.35;;
69678;SDS011;56915;52.046;4.854;2023-04-24T10:12:59;0.98;;;0.30;;
69678;SDS011;56915;52.046;4.854;2023-04-24T10:15:27;3.92;;;0.68;;
69678;SDS011;56915;52.046;4.854;2023-04-24T10:17:54;1.60;;;0.50;;
69678;SDS011;56915;52.046;4.854;2023-04-24T10:20:23;3.55;;;0.43;;
69678;SDS011;56915;52.046;4.854;2023-04-24T10:22:57;2.78;;;0.47;;
69678;SDS011;56915;52.046;4.854;2023-04-24T10:25:27;7.00;;;0.75;;
69678;SDS011;56915;52.046;4.854;2023-04-24T10:27:55;3.22;;;0.68;;
69678;SDS011;56915;52.046;4.854;2023-04-24T10:30:26;1.70;;;0.40;;
69678;SDS011;56915;52.046;4.854;2023-04-24T10:32:55;6.43;;;0.75;;
69678;SDS011;56915;52.046;4.854;2023-04-24T10:35:22;2.17;;;0.40;;
69678;SDS011;56915;52.046;4.854;2023-04-24T10:37:56;2.47;;;0.50;;
69678;SDS011;56915;52.046;4.854;2023-04-24T10:40:34;4.07;;;0.50;;
69678;SDS011;56915;52.046;4.854;2023-04-24T10:43:02;2.87;;;0.70;;
69678;SDS011;56915;52.046;4.854;2023-04-24T10:45:34;1.10;;;0.30;;
69678;SDS011;56915;52.046;4.854;2023-04-24T10:48:02;1.77;;;0.38;;
69678;SDS011;56915;52.046;4.854;2023-04-24T10:50:45;2.38;;;0.40;;
69678;SDS011;56915;52.046;4.854;2023-04-24T10:53:15;1.60;;;0.35;;
69678;SDS011;56915;52.046;4.854;2023-04-24T10:55:50;3.37;;;0.50;;
69678;SDS011;56915;52.046;4.854;2023-04-24T10:58:21;3.38;;;0.60;;
69678;SDS011;56915;52.046;4.854;2023-04-24T11:00:56;2.63;;;0.57;;
69678;SDS011;56915;52.046;4.854;2023-04-24T11:03:28;2.38;;;0.40;;
69678;SDS011;56915;52.046;4.854;2023-04-24T11:05:58;3.10;;;0.85;;
69678;SDS011;56915;52.046;4.854;2023-04-24T11:22:17;2.63;;;0.50;;
69678;SDS011;56915;52.046;4.854;2023-04-24T11:24:48;5.68;;;0.43;;
69678;SDS011;56915;52.046;4.854;2023-04-24T11:27:20;1.38;;;0.40;;
69678;SDS011;56915;52.046;4.854;2023-04-24T11:37:29;3.40;;;0.60;;
69678;SDS011;56915;52.046;4.854;2023-04-24T11:40:01;3.08;;;0.60;;
69678;SDS011;56915;52.046;4.854;2023-04-24T11:42:33;2.80;;;0.68;;
69678;SDS011;56915;52.046;4.854;2023-04-24T11:45:07;1.48;;;0.40;;
69678;SDS011;56915;52.046;4.854;2023-04-24T11:47:36;5.13;;;1.20;;
69678;SDS011;56915;52.046;4.854;2023-04-24T11:50:03;3.67;;;0.85;;
69678;SDS011;56915;52.046;4.854;2023-04-24T11:52:32;1.85;;;0.65;;
69678;SDS011;56915;52.046;4.854;2023-04-24T11:55:03;4.18;;;0.60;;
69678;SDS011;56915;52.046;4.854;2023-04-24T11:57:30;2.80;;;0.60;;
69678;SDS011;56915;52.046;4.854;2023-04-24T12:00:01;3.63;;;0.60;;
69678;SDS011;56915;52.046;4.854;2023-04-24T12:02:30;5.00;;;0.85;;
69678;SDS011;56915;52.046;4.854;2023-04-24T12:04:57;3.15;;;0.85;;
69678;SDS011;56915;52.046;4.854;2023-04-24T12:07:25;4.40;;;1.00;;
69678;SDS011;56915;52.046;4.854;2023-04-24T12:09:56;4.85;;;1.02;;
69678;SDS011;56915;52.046;4.854;2023-04-24T12:12:26;3.53;;;1.10;;
69678;SDS011;56915;52.046;4.854;2023-04-24T12:14:55;4.40;;;0.90;;
69678;SDS011;56915;52.046;4.854;2023-04-24T12:17:27;4.57;;;1.27;;
69678;SDS011;56915;52.046;4.854;2023-04-24T12:20:03;5.72;;;1.42;;
69678;SDS011;56915;52.046;4.854;2023-04-24T12:22:45;5.35;;;0.70;;
69678;SDS011;56915;52.046;4.854;2023-04-24T12:25:23;6.97;;;0.97;;
69678;SDS011;56915;52.046;4.854;2023-04-24T12:27:55;3.80;;;0.68;;
69678;SDS011;56915;52.046;4.854;2023-04-24T12:30:44;5.50;;;1.08;;
69678;SDS011;56915;52.046;4.854;2023-04-24T12:33:18;2.15;;;0.85;;
69678;SDS011;56915;52.046;4.854;2023-04-24T12:35:48;8.30;;;1.23;;
69678;SDS011;56915;52.046;4.854;2023-04-24T12:38:21;5.17;;;1.37;;
69678;SDS011;56915;52.046;4.854;2023-04-24T12:40:58;4.18;;;0.98;;
69678;SDS011;56915;52.046;4.854;2023-04-24T12:43:31;6.75;;;1.20;;
69678;SDS011;56915;52.046;4.854;2023-04-24T12:45:58;4.82;;;1.33;;
69678;SDS011;56915;52.046;4.854;2023-04-24T12:48:28;4.90;;;1.00;;
69678;SDS011;56915;52.046;4.854;2023-04-24T12:50:57;5.73;;;1.50;;
69678;SDS011;56915;52.046;4.854;2023-04-24T12:53:28;10.05;;;1.42;;
69678;SDS011;56915;52.046;4.854;2023-04-24T12:55:58;5.40;;;0.98;;
69678;SDS011;56915;52.046;4.854;2023-04-24T12:58:25;4.22;;;1.20;;
69678;SDS011;56915;52.046;4.854;2023-04-24T13:00:52;5.88;;;1.55;;
69678;SDS011;56915;52.046;4.854;2023-04-24T13:03:19;6.10;;;1.90;;
69678;SDS011;56915;52.046;4.854;2023-04-24T13:05:46;6.97;;;1.80;;
69678;SDS011;56915;52.046;4.854;2023-04-24T13:08:13;4.45;;;0.90;;
69678;SDS011;56915;52.046;4.854;2023-04-24T13:10:43;4.03;;;1.08;;
69678;SDS011;56915;52.046;4.854;2023-04-24T13:13:10;6.57;;;1.30;;
69678;SDS011;56915;52.046;4.854;2023-04-24T13:15:37;4.73;;;1.70;;
69678;SDS011;56915;52.046;4.854;2023-04-24T13:18:04;7.90;;;1.60;;
69678;SDS011;56915;52.046;4.854;2023-04-24T13:20:31;6.82;;;1.42;;
69678;SDS011;56915;52.046;4.854;2023-04-24T13:22:58;5.28;;;1.52;;
69678;SDS011;56915;52.046;4.854;2023-04-24T13:25:24;5.32;;;1.52;;
69678;SDS011;56915;52.046;4.854;2023-04-24T13:27:52;9.53;;;1.30;;
69678;SDS011;56915;52.046;4.854;2023-04-24T13:30:19;4.88;;;1.58;;
69678;SDS011;56915;52.046;4.854;2023-04-24T13:32:46;5.18;;;1.58;;
69678;SDS011;56915;52.046;4.854;2023-04-24T13:35:13;9.43;;;1.50;;
69678;SDS011;56915;52.046;4.854;2023-04-24T13:37:40;6.30;;;1.83;;
69678;SDS011;56915;52.046;4.854;2023-04-24T13:40:07;7.10;;;1.50;;
69678;SDS011;56915;52.046;4.854;2023-04-24T13:42:34;8.88;;;1.58;;
69678;SDS011;56915;52.046;4.854;2023-04-24T13:45:01;7.90;;;1.65;;
69678;SDS011;56915;52.046;4.854;2023-04-24T13:48:05;3.58;;;1.00;;
69678;SDS011;56915;52.046;4.854;2023-04-24T13:50:32;7.80;;;1.40;;
69678;SDS011;56915;52.046;4.854;2023-04-24T13:52:59;4.70;;;1.77;;
69678;SDS011;56915;52.046;4.854;2023-04-24T13:55:30;6.45;;;1.50;;
69678;SDS011;56915;52.046;4.854;2023-04-24T13:57:57;8.25;;;1.60;;
69678;SDS011;56915;52.046;4.854;2023-04-24T14:00:24;6.15;;;1.30;;
69678;SDS011;56915;52.046;4.854;2023-04-24T14:02:51;7.72;;;1.77;;
69678;SDS011;56915;52.046;4.854;2023-04-24T14:05:18;5.70;;;1.20;;
69678;SDS011;56915;52.046;4.854;2023-04-24T14:07:45;5.15;;;1.67;;
69678;SDS011;56915;52.046;4.854;2023-04-24T14:13:04;7.63;;;1.48;;
69678;SDS011;56915;52.046;4.854;2023-04-24T14:15:32;2.78;;;1.08;;
69678;SDS011;56915;52.046;4.854;2023-04-24T14:17:59;5.20;;;1.60;;
69678;SDS011;56915;52.046;4.854;2023-04-24T14:20:26;4.80;;;1.40;;
69678;SDS011;56915;52.046;4.854;2023-04-24T14:22:53;7.70;;;1.40;;
69678;SDS011;56915;52.046;4.854;2023-04-24T14:25:20;8.43;;;1.75;;
69678;SDS011;56915;52.046;4.854;2023-04-24T14:27:48;9.13;;;2.42;;
69678;SDS011;56915;52.046;4.854;2023-04-24T14:30:15;8.23;;;1.73;;
69678;SDS011;56915;52.046;4.854;2023-04-24T14:32:45;4.25;;;1.55;;
69678;SDS011;56915;52.046;4.854;2023-04-24T14:35:12;5.05;;;2.08;;
69678;SDS011;56915;52.046;4.854;2023-04-24T14:37:40;7.13;;;2.00;;
69678;SDS011;56915;52.046;4.854;2023-04-24T14:40:08;7.20;;;1.80;;
69678;SDS011;56915;52.046;4.854;2023-04-24T14:42:55;5.77;;;1.40;;
69678;SDS011;56915;52.046;4.854;2023-04-24T14:45:24;7.47;;;1.48;;
69678;SDS011;56915;52.046;4.854;2023-04-24T14:47:51;7.85;;;2.00;;
69678;SDS011;56915;52.046;4.854;2023-04-24T14:50:32;7.57;;;1.52;;
69678;SDS011;56915;52.046;4.854;2023-04-24T14:52:59;6.20;;;1.80;;
69678;SDS011;56915;52.046;4.854;2023-04-24T14:55:28;5.40;;;1.53;;
69678;SDS011;56915;52.046;4.854;2023-04-24T14:57:55;10.90;;;2.10;;
69678;SDS011;56915;52.046;4.854;2023-04-24T15:00:22;12.70;;;2.38;;
69678;SDS011;56915;52.046;4.854;2023-04-24T15:02:50;8.02;;;2.13;;
69678;SDS011;56915;52.046;4.854;2023-04-24T15:05:17;5.25;;;1.85;;
69678;SDS011;56915;52.046;4.854;2023-04-24T15:07:45;8.10;;;2.10;;
69678;SDS011;56915;52.046;4.854;2023-04-24T15:10:11;6.85;;;2.00;;
69678;SDS011;56915;52.046;4.854;2023-04-24T15:12:38;7.15;;;2.00;;
69678;SDS011;56915;52.046;4.854;2023-04-24T15:15:05;11.40;;;2.53;;
69678;SDS011;56915;52.046;4.854;2023-04-24T15:17:33;9.18;;;1.95;;
69678;SDS011;56915;52.046;4.854;2023-04-24T15:20:00;6.37;;;1.80;;
69678;SDS011;56915;52.046;4.854;2023-04-24T15:22:27;6.68;;;1.42;;
69678;SDS011;56915;52.046;4.854;2023-04-24T15:24:54;5.97;;;1.80;;
69678;SDS011;56915;52.046;4.854;2023-04-24T15:27:22;6.07;;;1.92;;
69678;SDS011;56915;52.046;4.854;2023-04-24T15:29:49;6.80;;;1.77;;
69678;SDS011;56915;52.046;4.854;2023-04-24T15:32:16;7.33;;;1.80;;
69678;SDS011;56915;52.046;4.854;2023-04-24T15:34:42;6.65;;;1.67;;
69678;SDS011;56915;52.046;4.854;2023-04-24T15:39:46;10.40;;;1.83;;
69678;SDS011;56915;52.046;4.854;2023-04-24T15:42:13;8.35;;;2.30;;
69678;SDS011;56915;52.046;4.854;2023-04-24T15:44:40;6.13;;;1.60;;
69678;SDS011;56915;52.046;4.854;2023-04-24T15:47:08;5.22;;;1.58;;
69678;SDS011;56915;52.046;4.854;2023-04-24T15:49:35;2.63;;;1.20;;
69678;SDS011;56915;52.046;4.854;2023-04-24T15:52:02;6.90;;;1.83;;
69678;SDS011;56915;52.046;4.854;2023-04-24T15:54:29;5.95;;;1.60;;
69678;SDS011;56915;52.046;4.854;2023-04-24T15:56:56;9.57;;;2.10;;
69678;SDS011;56915;52.046;4.854;2023-04-24T15:59:23;4.38;;;1.63;;
69678;SDS011;56915;52.046;4.854;2023-04-24T16:01:49;6.05;;;2.25;;
69678;SDS011;56915;52.046;4.854;2023-04-24T16:04:17;8.60;;;2.05;;
69678;SDS011;56915;52.046;4.854;2023-04-24T16:06:44;4.75;;;1.42;;
69678;SDS011;56915;52.046;4.854;2023-04-24T16:09:11;7.57;;;1.98;;
69678;SDS011;56915;52.046;4.854;2023-04-24T16:11:40;5.47;;;1.80;;
69678;SDS011;56915;52.046;4.854;2023-04-24T16:14:07;4.72;;;1.85;;
69678;SDS011;56915;52.046;4.854;2023-04-24T16:16:36;6.57;;;1.65;;
69678;SDS011;56915;52.046;4.854;2023-04-24T16:19:02;7.72;;;2.17;;
69678;SDS011;56915;52.046;4.854;2023-04-24T16:21:29;4.57;;;1.23;;
69678;SDS011;56915;52.046;4.854;2023-04-24T16:23:57;4.95;;;1.60;;
69678;SDS011;56915;52.046;4.854;2023-04-24T16:26:23;6.47;;;1.60;;
69678;SDS011;56915;52.046;4.854;2023-04-24T16:28:50;6.95;;;1.98;;
69678;SDS011;56915;52.046;4.854;2023-04-24T16:34:28;8.17;;;2.27;;